Terminal Aerodrome Forecast
Issued by NWS Tulsa, OK

Home | Current Version | Previous Version | Text Only | Print | Product List | Glossary On
Versions: 1 2 3 4 5 6 7 8 9 10 11 12 13 14
632
FTUS44 KTSA 080331 AAB
TAFTUL
TAF AMD
KTUL 080331Z 0804/0824 31017G24KT P6SM BKN140
     FM081500 33021G35KT P6SM SCT050=

USA.gov is the U.S. government's official web portal to all federal, state and local government web resources and services.